Time;durP1;ratioP1;P1;durP2;ratioP2;P2;SDS_P1;SDS_P2;PMS_P1;PMS_P2;Temp;Humidity;BMP_temperature;BMP_pressure;BME280_temperature;BME280_humidity;BME280_pressure;Samples;Min_cycle;Max_cycle;Signal;HPM_P1;HPM_P2
2023/04/17 00:01:22;;;;;;;16.77;10.00;;;;;;;12.43;75.94;98740.22;5085404;28;20016;-73
2023/04/17 00:03:48;;;;;;;19.88;10.85;;;;;;;12.38;76.10;98736.88;5091076;28;20028;-72
2023/04/17 00:06:15;;;;;;;17.23;10.25;;;;;;;12.02;77.55;98736.84;5095868;28;20016;-73
2023/04/17 00:08:42;;;;;;;18.85;12.27;;;;;;;12.14;77.61;98728.31;5105200;28;20414;-73
2023/04/17 00:11:07;;;;;;;17.90;10.30;;;;;;;11.68;79.85;98736.34;5091862;28;20534;-73
2023/04/17 00:13:33;;;;;;;21.50;9.95;;;;;;;10.91;84.75;98730.69;5091174;28;20161;-73
2023/04/17 00:15:58;;;;;;;20.75;11.00;;;;;;;10.38;86.94;98726.72;5092791;28;20114;-73
2023/04/17 00:18:24;;;;;;;40.55;13.52;;;;;;;9.76;90.54;98717.53;5112431;28;20034;-73
2023/04/17 00:20:49;;;;;;;51.92;16.35;;;;;;;9.27;95.90;98721.88;5112914;28;20015;-72
2023/04/17 00:23:15;;;;;;;38.20;18.08;;;;;;;9.44;97.58;98717.28;5092936;28;20041;-72
2023/04/17 00:25:40;;;;;;;28.20;14.60;;;;;;;9.57;95.93;98718.91;5092856;28;20430;-73
2023/04/17 00:28:06;;;;;;;30.58;14.63;;;;;;;9.55;97.26;98729.63;5093401;28;20084;-73
2023/04/17 00:30:31;;;;;;;25.15;13.70;;;;;;;9.80;95.37;98724.06;5112338;28;20094;-73
2023/04/17 00:32:56;;;;;;;33.00;16.65;;;;;;;9.51;96.22;98732.28;5093902;28;20028;-74
2023/04/17 00:35:22;;;;;;;32.22;14.93;;;;;;;9.92;95.35;98732.47;5101616;28;20028;-73
2023/04/17 00:37:48;;;;;;;22.00;13.13;;;;;;;10.24;92.66;98738.25;5091200;28;20019;-73
2023/04/17 00:40:13;;;;;;;21.67;11.93;;;;;;;10.29;90.94;98742.78;5093866;28;20031;-73
2023/04/17 00:42:39;;;;;;;22.75;12.55;;;;;;;10.51;90.11;98740.69;5109525;28;20023;-73
2023/04/17 00:45:09;;;;;;;29.15;13.95;;;;;;;10.82;87.72;98744.81;5103408;28;20524;-73
2023/04/17 00:47:35;;;;;;;22.42;12.63;;;;;;;10.80;86.96;98747.16;5093251;28;20034;-73
2023/04/17 00:50:04;;;;;;;20.00;12.63;;;;;;;10.85;84.91;98743.28;5093652;28;20020;-73
2023/04/17 00:52:29;;;;;;;21.90;12.43;;;;;;;10.83;85.03;98754.84;5093673;28;20430;-73
2023/04/17 00:54:58;;;;;;;19.92;12.05;;;;;;;10.71;84.85;98752.88;5093775;28;20059;-73
2023/04/17 00:57:24;;;;;;;20.15;12.60;;;;;;;10.72;84.70;98742.53;5111681;28;20019;-72
2023/04/17 00:59:49;;;;;;;23.25;13.48;;;;;;;10.84;84.19;98752.84;5092305;28;20031;-73
2023/04/17 01:02:16;;;;;;;22.17;13.30;;;;;;;10.85;83.37;98751.69;5099099;28;20020;-73
2023/04/17 01:04:41;;;;;;;20.90;11.75;;;;;;;10.96;82.57;98747.22;5091648;28;20085;-73
2023/04/17 01:07:07;;;;;;;19.85;12.57;;;;;;;10.94;82.62;98741.16;5100286;28;20441;-72
2023/04/17 01:09:33;;;;;;;18.55;11.90;;;;;;;10.88;82.64;98745.41;5105124;28;20028;-73
2023/04/17 01:12:32;;;;;;;23.23;12.40;;;;;;;10.95;82.98;98742.78;5091680;28;20501;-73
2023/04/17 01:14:58;;;;;;;21.08;11.85;;;;;;;10.95;83.08;98735.22;5091772;28;20040;-73
2023/04/17 01:17:27;;;;;;;21.60;12.48;;;;;;;10.78;83.48;98741.09;5103410;28;20031;-73
2023/04/17 01:19:53;;;;;;;17.58;12.40;;;;;;;10.60;85.55;98743.34;5100693;28;20019;-72
2023/04/17 01:22:19;;;;;;;15.77;10.35;;;;;;;10.85;84.59;98740.47;5091553;28;20111;-73
2023/04/17 01:24:45;;;;;;;22.27;11.18;;;;;;;10.81;83.26;98738.41;5089977;28;20111;-73
2023/04/17 01:27:12;;;;;;;19.95;12.10;;;;;;;10.89;82.29;98745.03;5093015;28;20026;-72
2023/04/17 01:29:38;;;;;;;15.57;10.60;;;;;;;10.97;81.85;98740.44;5111655;28;20027;-73
2023/04/17 01:32:04;;;;;;;17.52;11.30;;;;;;;10.50;83.82;98737.09;5092393;28;20470;-74
2023/04/17 01:34:29;;;;;;;19.90;11.35;;;;;;;10.38;84.68;98731.50;5111376;28;20085;-73
2023/04/17 01:36:55;;;;;;;19.58;10.60;;;;;;;10.75;83.49;98742.63;5092815;28;20376;-73
2023/04/17 01:39:20;;;;;;;27.92;15.02;;;;;;;10.70;84.06;98742.88;5115666;28;20414;-73
2023/04/17 01:41:46;;;;;;;38.80;16.48;;;;;;;10.78;84.27;98738.28;5115581;28;20034;-72
2023/04/17 01:44:11;;;;;;;39.78;16.98;;;;;;;10.82;83.80;98750.41;5097478;28;20028;-72
2023/04/17 01:46:37;;;;;;;27.95;14.20;;;;;;;10.95;82.46;98748.38;5114226;28;20038;-72
2023/04/17 01:49:02;;;;;;;25.50;14.10;;;;;;;10.91;81.97;98744.69;5115164;28;20050;-73
2023/04/17 01:51:28;;;;;;;23.63;13.75;;;;;;;10.91;81.74;98750.28;5115369;28;20019;-73
2023/04/17 01:53:53;;;;;;;18.65;11.95;;;;;;;10.84;81.13;98744.44;5114665;28;20035;-73
2023/04/17 01:56:19;;;;;;;22.33;13.25;;;;;;;10.85;80.51;98743.28;5113843;28;20023;-73
2023/04/17 01:58:44;;;;;;;31.35;13.98;;;;;;;10.80;80.78;98736.78;5095018;28;20020;-73
2023/04/17 02:01:10;;;;;;;29.20;13.88;;;;;;;10.22;85.67;98743.38;5100441;28;20012;-72
2023/04/17 02:03:36;;;;;;;26.25;15.63;;;;;;;10.16;86.42;98736.41;5115152;28;20405;-72
2023/04/17 02:06:01;;;;;;;27.77;14.82;;;;;;;9.92;89.40;98732.47;5114870;28;20063;-73
2023/04/17 02:08:28;;;;;;;23.25;12.85;;;;;;;9.99;89.74;98737.47;5093518;28;20402;-73
2023/04/17 02:10:54;;;;;;;25.67;13.50;;;;;;;10.01;85.59;98735.13;5114789;28;20051;-72
2023/04/17 02:13:20;;;;;;;24.58;13.65;;;;;;;10.20;84.72;98731.75;5077997;28;20522;-72
2023/04/17 02:15:46;;;;;;;36.30;14.60;;;;;;;10.44;82.81;98730.09;5076066;28;20027;-73
2023/04/17 02:18:11;;;;;;;27.75;13.95;;;;;;;10.47;82.33;98718.22;5110648;28;20402;-73
2023/04/17 02:20:37;;;;;;;24.92;13.23;;;;;;;10.40;83.67;98715.97;5114858;28;20027;-73
2023/04/17 02:23:05;;;;;;;21.65;13.07;;;;;;;9.46;89.58;98706.56;5095863;28;20062;-73
2023/04/17 02:25:31;;;;;;;25.92;14.07;;;;;;;8.89;92.47;98701.41;5102233;28;20016;-73
2023/04/17 02:27:57;;;;;;;29.20;15.02;;;;;;;8.77;93.15;98696.59;5114460;28;20470;-73
2023/04/17 02:30:23;;;;;;;28.27;14.65;;;;;;;8.88;92.90;98702.59;5113822;28;20118;-73
2023/04/17 02:32:50;;;;;;;23.83;13.45;;;;;;;9.05;91.65;98709.97;5089216;28;20529;-73
2023/04/17 02:35:17;;;;;;;22.55;14.48;;;;;;;9.28;91.82;98715.13;5114627;28;20027;-73
2023/04/17 02:37:42;;;;;;;27.33;14.73;;;;;;;9.55;90.75;98712.88;5095441;28;20141;-74
2023/04/17 02:40:09;;;;;;;19.35;13.00;;;;;;;9.76;88.67;98718.38;5094291;28;20048;-73
2023/04/17 02:42:34;;;;;;;24.42;13.23;;;;;;;9.88;88.05;98725.13;5114680;28;20060;-72
2023/04/17 02:45:00;;;;;;;20.92;13.48;;;;;;;9.71;88.52;98715.78;5083893;28;20043;-73
2023/04/17 02:47:25;;;;;;;24.15;13.40;;;;;;;9.89;88.09;98719.16;5074747;28;20016;-73
2023/04/17 02:49:51;;;;;;;22.10;13.40;;;;;;;10.09;87.57;98723.03;5093922;28;20024;-73
2023/04/17 02:52:17;;;;;;;20.67;13.10;;;;;;;10.17;87.14;98732.44;5093906;28;20024;-73
2023/04/17 02:54:42;;;;;;;21.48;13.45;;;;;;;10.34;86.16;98730.56;5092526;28;20023;-73
2023/04/17 02:57:08;;;;;;;21.92;13.15;;;;;;;10.45;85.40;98730.94;5100263;28;20474;-73
2023/04/17 02:59:33;;;;;;;26.75;13.35;;;;;;;10.23;86.33;98733.03;5114136;28;20023;-73
2023/04/17 03:01:59;;;;;;;21.15;14.85;;;;;;;10.09;87.43;98719.41;5103567;28;20030;-73
2023/04/17 03:04:26;;;;;;;30.80;17.20;;;;;;;9.73;92.68;98712.66;5113883;28;20395;-73
2023/04/17 03:06:52;;;;;;;23.55;15.50;;;;;;;9.68;94.38;98708.94;5095378;28;20029;-73
2023/04/17 03:09:21;;;;;;;31.33;15.98;;;;;;;9.78;95.29;98715.22;5113990;28;20027;-73
2023/04/17 03:11:47;;;;;;;33.50;16.58;;;;;;;9.52;97.22;98719.13;5095445;28;20073;-72
2023/04/17 03:14:12;;;;;;;31.55;16.95;;;;;;;9.67;98.29;98718.47;5113873;28;20047;-72
2023/04/17 03:16:38;;;;;;;24.27;17.13;;;;;;;9.21;97.58;98726.06;5094276;28;20034;-72
2023/04/17 03:19:03;;;;;;;25.50;17.95;;;;;;;8.99;99.14;98703.78;5099912;28;20031;-73
2023/04/17 03:21:30;;;;;;;27.52;18.20;;;;;;;9.04;99.49;98711.09;5113733;28;20016;-73
2023/04/17 03:23:55;;;;;;;29.73;17.10;;;;;;;8.88;100.00;98707.34;5089092;28;20031;-73
2023/04/17 03:26:21;;;;;;;30.45;17.63;;;;;;;9.05;100.00;98717.50;5093233;28;20020;-72
2023/04/17 03:28:46;;;;;;;28.83;16.45;;;;;;;9.31;100.00;98725.63;5094934;28;20027;-73
2023/04/17 03:31:12;;;;;;;28.92;15.32;;;;;;;9.55;97.97;98735.22;5113116;28;20023;-73
2023/04/17 03:33:37;;;;;;;30.20;17.67;;;;;;;9.69;97.24;98730.09;5092443;28;20691;-72
2023/04/17 03:36:03;;;;;;;27.48;15.80;;;;;;;9.59;96.80;98727.75;5095262;28;20403;-72
2023/04/17 03:38:28;;;;;;;23.92;15.52;;;;;;;9.81;96.36;98726.50;5105567;28;20023;-73
2023/04/17 03:40:54;;;;;;;26.08;16.55;;;;;;;10.09;95.64;98719.41;5091721;28;20020;-73
2023/04/17 03:43:19;;;;;;;25.90;14.52;;;;;;;10.24;93.43;98721.47;5093050;28;20508;-73
2023/04/17 03:45:45;;;;;;;23.08;14.02;;;;;;;10.31;92.96;98729.28;5092463;28;20505;-72
2023/04/17 03:48:10;;;;;;;20.80;13.02;;;;;;;10.47;92.16;98742.56;5094330;28;20406;-73
2023/04/17 03:50:36;;;;;;;27.90;15.13;;;;;;;10.56;91.86;98732.09;5113110;28;20085;-73
2023/04/17 03:53:01;;;;;;;22.60;15.18;;;;;;;10.63;90.65;98739.88;5093301;28;20084;-73
2023/04/17 03:55:27;;;;;;;157.60;84.07;;;;;;;10.79;90.09;98728.72;5112844;28;20034;-73
2023/04/17 03:57:52;;;;;;;43.92;23.45;;;;;;;10.82;89.16;98728.03;5107384;28;20023;-72
2023/04/17 04:00:18;;;;;;;29.80;16.15;;;;;;;10.71;89.15;98740.91;5093548;28;20019;-73
2023/04/17 04:02:45;;;;;;;25.27;15.93;;;;;;;10.75;88.94;98742.63;5094474;28;20027;-73
2023/04/17 04:05:10;;;;;;;46.40;17.77;;;;;;;10.48;90.22;98742.22;5094392;28;20027;-73
2023/04/17 04:07:36;;;;;;;26.63;14.80;;;;;;;10.68;89.95;98745.22;5111715;28;20031;-73
2023/04/17 04:10:01;;;;;;;22.38;13.80;;;;;;;10.84;88.83;98750.06;5112848;28;20474;-72
2023/04/17 04:12:27;;;;;;;28.60;14.45;;;;;;;10.82;88.62;98740.03;5091189;28;20490;-72
2023/04/17 04:14:52;;;;;;;27.58;14.98;;;;;;;10.88;88.45;98743.41;5085156;28;20024;-73
2023/04/17 04:17:17;;;;;;;23.90;14.05;;;;;;;10.93;87.60;98745.13;5085582;28;20031;-73
2023/04/17 04:19:43;;;;;;;23.20;14.88;;;;;;;10.80;87.89;98745.16;5092422;28;20023;-73
2023/04/17 04:22:09;;;;;;;25.20;15.65;;;;;;;10.86;88.05;98750.50;5089049;28;20554;-73
2023/04/17 04:24:35;;;;;;;24.55;14.43;;;;;;;10.76;88.05;98747.06;5069494;28;20036;-74
2023/04/17 04:27:03;;;;;;;22.05;13.77;;;;;;;10.62;88.31;98744.63;5073299;28;20127;-73
2023/04/17 04:29:28;;;;;;;25.20;13.88;;;;;;;10.48;88.85;98747.81;5090856;28;20027;-73
2023/04/17 04:31:54;;;;;;;23.92;15.15;;;;;;;10.39;90.20;98752.69;5090735;28;20016;-73
2023/04/17 04:34:20;;;;;;;27.05;13.75;;;;;;;10.53;90.46;98755.97;5092052;28;20394;-72
2023/04/17 04:36:49;;;;;;;27.10;15.18;;;;;;;10.67;89.86;98754.75;5091474;28;20483;-73
2023/04/17 04:39:19;;;;;;;24.90;14.68;;;;;;;10.76;89.25;98755.44;5082655;28;20020;-73
2023/04/17 04:41:46;;;;;;;22.20;14.70;;;;;;;10.92;88.64;98751.91;5070618;28;20077;-73
2023/04/17 04:44:11;;;;;;;21.98;14.90;;;;;;;10.97;88.46;98748.84;5069429;28;20111;-73
2023/04/17 04:46:37;;;;;;;23.33;16.08;;;;;;;11.00;88.66;98753.75;5069994;28;20175;-72
2023/04/17 04:49:02;;;;;;;39.88;22.42;;;;;;;11.04;88.30;98746.25;5071393;28;20077;-73
2023/04/17 04:51:28;;;;;;;57.00;35.45;;;;;;;10.99;88.41;98738.13;5071672;28;20093;-73
2023/04/17 04:53:53;;;;;;;39.10;22.92;;;;;;;11.07;87.39;98748.34;5070509;28;20032;-73
2023/04/17 04:56:20;;;;;;;30.77;18.23;;;;;;;11.23;86.60;98759.59;5069154;28;20016;-73
2023/04/17 04:58:45;;;;;;;50.88;19.40;;;;;;;11.39;85.75;98764.41;5069497;28;20040;-73
2023/04/17 05:01:11;;;;;;;32.70;15.73;;;;;;;11.34;84.82;98770.28;5060234;28;20091;-73
2023/04/17 05:03:37;;;;;;;25.15;14.40;;;;;;;11.43;84.67;98764.50;5074128;28;20029;-73
2023/04/17 05:06:02;;;;;;;26.15;16.02;;;;;;;11.77;83.90;98768.63;5069103;28;20052;-74
2023/04/17 05:08:28;;;;;;;27.42;15.80;;;;;;;11.86;83.16;98774.06;5074634;28;20012;-73
2023/04/17 05:10:54;;;;;;;24.95;15.15;;;;;;;12.05;83.01;98778.16;5079179;28;20024;-74
2023/04/17 05:13:19;;;;;;;24.88;15.93;;;;;;;12.04;84.55;98770.91;5104868;28;20039;-74
2023/04/17 05:15:45;;;;;;;27.75;15.50;;;;;;;12.07;84.43;98779.41;5115629;28;20452;-75
2023/04/17 05:18:10;;;;;;;25.25;16.20;;;;;;;12.14;84.00;98778.78;5100210;28;20020;-74
2023/04/17 05:20:36;;;;;;;33.42;16.70;;;;;;;12.15;84.00;98774.81;5086838;28;20039;-70
2023/04/17 05:23:05;;;;;;;25.35;15.75;;;;;;;12.52;83.61;98772.84;5092954;28;20477;-71
2023/04/17 05:25:30;;;;;;;26.23;16.27;;;;;;;12.61;82.09;98773.47;5098276;27;20042;-68
2023/04/17 05:27:56;;;;;;;30.30;17.40;;;;;;;12.88;82.00;98768.88;5098531;27;20023;-67
2023/04/17 05:30:21;;;;;;;27.20;14.93;;;;;;;13.13;81.44;98776.19;5100923;28;20069;-68
2023/04/17 05:32:47;;;;;;;30.20;17.40;;;;;;;13.07;80.52;98775.66;5079948;28;20023;-70
2023/04/17 05:35:12;;;;;;;29.10;17.45;;;;;;;12.89;82.61;98780.88;5093558;28;20435;-73
2023/04/17 05:37:38;;;;;;;26.08;17.45;;;;;;;12.98;82.00;98773.06;5097188;27;20024;-71
2023/04/17 05:40:05;;;;;;;31.20;16.73;;;;;;;12.83;82.48;98765.53;5094472;28;20376;-72
2023/04/17 05:42:32;;;;;;;30.17;17.00;;;;;;;12.90;82.76;98769.31;5114903;28;20452;-68
2023/04/17 05:44:57;;;;;;;27.77;16.40;;;;;;;13.00;81.92;98770.69;5112538;28;20500;-66
2023/04/17 05:47:23;;;;;;;28.17;17.10;;;;;;;13.06;82.30;98768.41;5106457;27;20027;-69
2023/04/17 05:49:51;;;;;;;25.40;16.08;;;;;;;13.17;81.88;98772.25;5111074;27;20031;-68
2023/04/17 05:52:17;;;;;;;24.10;15.93;;;;;;;13.19;82.60;98777.53;5114814;28;20410;-68
2023/04/17 05:54:42;;;;;;;27.25;16.83;;;;;;;12.92;84.34;98774.56;5086693;27;20046;-71
2023/04/17 05:57:08;;;;;;;24.35;15.77;;;;;;;12.84;84.94;98775.56;5086584;28;20122;-69
2023/04/17 05:59:33;;;;;;;26.88;15.80;;;;;;;13.05;83.30;98775.22;5099505;27;20559;-69
2023/04/17 06:01:58;;;;;;;27.73;16.33;;;;;;;13.06;83.09;98774.03;5099361;28;20032;-74
2023/04/17 06:04:24;;;;;;;29.25;16.35;;;;;;;12.94;83.14;98769.38;5097549;28;20019;-69
2023/04/17 06:06:50;;;;;;;23.92;15.00;;;;;;;12.87;83.36;98775.66;5093406;28;20024;-68
2023/04/17 06:09:15;;;;;;;25.65;16.48;;;;;;;12.71;84.10;98781.31;5113362;28;20071;-68
2023/04/17 06:11:41;;;;;;;25.05;16.13;;;;;;;12.87;83.33;98780.44;5105933;28;20035;-69
2023/04/17 06:14:06;;;;;;;32.58;17.10;;;;;;;13.04;84.33;98779.22;5075925;28;20046;-68
2023/04/17 06:16:32;;;;;;;27.60;17.48;;;;;;;13.19;82.55;98781.13;5099672;28;20027;-66
2023/04/17 06:18:57;;;;;;;26.30;16.25;;;;;;;13.08;82.11;98763.25;5093811;28;20020;-68
2023/04/17 06:21:23;;;;;;;31.48;18.15;;;;;;;13.15;83.23;98788.66;5092539;28;20122;-70
2023/04/17 06:23:48;;;;;;;26.58;17.33;;;;;;;13.19;82.98;98791.56;5082521;28;20024;-66
2023/04/17 06:26:14;;;;;;;27.42;16.33;;;;;;;13.54;81.41;98799.09;5100992;27;20028;-69
2023/04/17 06:28:39;;;;;;;25.30;16.08;;;;;;;13.81;79.06;98807.63;5080913;28;20066;-68
2023/04/17 06:31:05;;;;;;;27.00;14.95;;;;;;;14.02;77.98;98815.63;5094607;28;20581;-67
2023/04/17 06:33:30;;;;;;;27.55;17.02;;;;;;;13.81;79.76;98820.88;5092111;28;20398;-68
2023/04/17 06:35:56;;;;;;;27.48;16.63;;;;;;;13.81;79.02;98820.88;5092532;28;20067;-72
2023/04/17 06:38:21;;;;;;;23.48;14.52;;;;;;;13.98;77.79;98825.19;5103589;27;20028;-73
2023/04/17 06:40:47;;;;;;;25.55;14.90;;;;;;;14.04;77.96;98820.91;5097133;28;20023;-71
2023/04/17 06:43:15;;;;;;;31.73;16.10;;;;;;;14.03;77.53;98825.69;5084065;28;20015;-68
2023/04/17 06:45:41;;;;;;;23.75;15.57;;;;;;;14.12;77.50;98821.84;5107178;27;20047;-69
2023/04/17 06:48:07;;;;;;;24.85;15.35;;;;;;;14.29;76.10;98823.31;5092824;28;20024;-68
2023/04/17 06:50:32;;;;;;;21.25;13.13;;;;;;;14.51;75.05;98826.50;5106148;28;20043;-74
2023/04/17 06:52:58;;;;;;;23.95;14.55;;;;;;;14.42;74.67;98826.75;5094413;28;20031;-70
2023/04/17 06:55:24;;;;;;;27.15;13.43;;;;;;;14.34;75.00;98823.00;5106590;27;20053;-67
2023/04/17 06:57:49;;;;;;;22.48;13.27;;;;;;;14.48;73.26;98827.22;5112823;27;20107;-71
2023/04/17 07:00:15;;;;;;;27.20;12.88;;;;;;;14.83;71.34;98818.56;5112948;28;20020;-68
2023/04/17 07:02:40;;;;;;;18.92;12.75;;;;;;;15.07;70.78;98832.56;5113585;28;20027;-68
2023/04/17 07:05:06;;;;;;;26.77;12.25;;;;;;;14.97;70.09;98822.78;5107481;28;20442;-68
2023/04/17 07:07:33;;;;;;;28.45;14.23;;;;;;;15.00;71.18;98836.91;5098344;27;20496;-71
2023/04/17 07:09:59;;;;;;;27.92;14.43;;;;;;;15.04;70.75;98830.50;5103151;27;20038;-71
2023/04/17 07:12:25;;;;;;;22.45;12.90;;;;;;;14.88;72.00;98837.94;5086854;28;20044;-76
2023/04/17 07:14:51;;;;;;;24.13;13.60;;;;;;;14.63;73.11;98837.53;5082689;28;20039;-71
2023/04/17 07:17:16;;;;;;;24.08;13.77;;;;;;;14.82;72.65;98842.28;5091449;28;20038;-71
2023/04/17 07:19:42;;;;;;;27.45;14.00;;;;;;;14.99;72.42;98860.63;5098944;27;20036;-70
2023/04/17 07:22:08;;;;;;;23.08;14.93;;;;;;;15.18;72.31;98850.41;5093506;28;20512;-71
2023/04/17 07:24:34;;;;;;;31.35;16.65;;;;;;;15.19;71.54;98852.03;5109547;28;20028;-71
2023/04/17 07:27:01;;;;;;;27.58;14.90;;;;;;;15.31;69.42;98859.47;5112997;28;20095;-69
2023/04/17 07:29:27;;;;;;;25.00;13.90;;;;;;;15.26;69.80;98863.41;5090358;28;20399;-69
2023/04/17 07:31:53;;;;;;;25.27;14.65;;;;;;;15.35;69.91;98863.13;5110673;28;20067;-69
2023/04/17 07:34:18;;;;;;;22.67;13.27;;;;;;;15.28;70.75;98848.97;5112174;28;20027;-71
2023/04/17 07:36:44;;;;;;;27.48;14.07;;;;;;;15.44;69.92;98857.19;5105797;28;20130;-70
2023/04/17 07:39:10;;;;;;;22.92;14.40;;;;;;;15.53;69.81;98860.53;5112563;28;20027;-73
2023/04/17 07:41:35;;;;;;;27.42;14.38;;;;;;;15.37;70.72;98843.03;5108226;28;20020;-70
2023/04/17 07:44:02;;;;;;;28.00;14.35;;;;;;;15.37;70.27;98849.47;5101683;28;20051;-71
2023/04/17 07:46:27;;;;;;;23.83;14.65;;;;;;;15.48;70.43;98855.25;5093845;28;20039;-68
2023/04/17 07:48:53;;;;;;;25.98;14.07;;;;;;;15.59;68.49;98849.72;5094376;28;20448;-79
2023/04/17 07:51:18;;;;;;;23.42;13.55;;;;;;;15.21;69.89;98849.69;5101262;28;20031;-73
2023/04/17 07:53:44;;;;;;;21.25;13.77;;;;;;;15.30;69.15;98846.56;5092122;28;20027;-74
2023/04/17 07:56:09;;;;;;;23.25;12.60;;;;;;;15.23;70.11;98847.28;5092205;28;20031;-74
2023/04/17 07:58:35;;;;;;;21.23;13.45;;;;;;;15.29;69.87;98844.94;5093459;28;20023;-74
2023/04/17 08:01:04;;;;;;;21.88;12.43;;;;;;;15.25;68.17;98852.53;5110820;28;20031;-74
2023/04/17 08:03:30;;;;;;;21.75;13.13;;;;;;;15.25;68.70;98847.72;5110409;28;20106;-74
2023/04/17 08:05:56;;;;;;;21.63;12.68;;;;;;;15.21;69.24;98849.69;5112276;28;20059;-74
2023/04/17 08:08:22;;;;;;;24.75;13.85;;;;;;;15.06;70.63;98845.84;5112233;28;20027;-74
2023/04/17 08:10:48;;;;;;;21.30;11.15;;;;;;;14.77;70.46;98851.03;5111448;28;20019;-74
2023/04/17 08:13:14;;;;;;;25.70;10.57;;;;;;;14.58;70.71;98852.75;5089853;28;20048;-75
2023/04/17 08:15:40;;;;;;;17.88;12.43;;;;;;;14.26;72.15;98857.84;5090590;28;20088;-74
2023/04/17 08:18:07;;;;;;;19.02;11.77;;;;;;;14.08;73.52;98860.34;5106073;28;20034;-74
2023/04/17 08:20:32;;;;;;;19.00;13.00;;;;;;;14.10;74.02;98855.94;5092415;28;20024;-74
2023/04/17 08:22:58;;;;;;;18.75;11.48;;;;;;;13.91;74.39;98865.22;5111942;28;20023;-74
2023/04/17 08:25:24;;;;;;;21.42;13.18;;;;;;;13.87;75.10;98864.38;5093560;28;20031;-74
2023/04/17 08:27:50;;;;;;;19.15;12.65;;;;;;;13.74;76.28;98858.06;5111950;28;20490;-74
2023/04/17 08:30:16;;;;;;;21.13;12.90;;;;;;;13.73;75.92;98859.25;5091245;28;20236;-74
2023/04/17 08:32:46;;;;;;;18.60;12.18;;;;;;;13.75;76.25;98857.72;5093678;28;20050;-74
2023/04/17 08:35:14;;;;;;;17.48;12.75;;;;;;;13.85;75.38;98859.09;5093242;28;20032;-75
2023/04/17 08:37:41;;;;;;;21.90;12.57;;;;;;;13.95;76.25;98860.50;5109961;28;20024;-76
2023/04/17 08:40:08;;;;;;;23.17;14.50;;;;;;;13.72;77.11;98854.84;5092617;28;20019;-75
2023/04/17 08:42:41;;;;;;;23.25;14.38;;;;;;;13.73;77.65;98854.47;5107686;28;20501;-76
2023/04/17 08:45:10;;;;;;;27.58;16.80;;;;;;;13.76;78.29;98850.13;5082550;28;20019;-73
2023/04/17 08:47:41;;;;;;;23.88;16.00;;;;;;;13.92;78.38;98854.81;5092287;28;20055;-72
2023/04/17 08:50:10;;;;;;;;;;;;;;;13.95;78.30;98862.50;5106739;28;20070;-73
2023/04/17 08:52:46;;;;;;;22.42;15.70;;;;;;;14.02;78.27;98865.44;5091417;28;20467;-72
2023/04/17 08:55:14;;;;;;;19.08;15.20;;;;;;;14.03;77.75;98872.69;5101357;28;20446;-72
2023/04/17 08:58:20;;;;;;;23.85;15.00;;;;;;;13.84;78.76;98867.91;5092607;28;20027;-73
2023/04/17 09:00:46;;;;;;;22.05;14.25;;;;;;;13.95;78.88;98865.31;5080591;28;20513;-73
2023/04/17 09:03:12;;;;;;;24.55;15.25;;;;;;;13.89;78.93;98870.41;5103148;28;20031;-72
2023/04/17 09:05:47;;;;;;;32.67;20.50;;;;;;;13.78;79.98;98866.59;5091348;28;20108;-72
2023/04/17 09:08:22;;;;;;;26.35;16.80;;;;;;;13.85;80.17;98864.72;5090743;28;20130;-73
2023/04/17 09:10:53;;;;;;;21.17;16.48;;;;;;;14.03;79.43;98864.25;5091368;28;20119;-73
2023/04/17 09:13:24;;;;;;;24.05;16.48;;;;;;;13.96;79.20;98866.94;5086901;28;20782;-71
2023/04/17 09:16:06;;;;;;;27.13;15.93;;;;;;;14.02;79.44;98876.69;5098564;28;20430;-71
2023/04/17 09:18:33;;;;;;;26.52;17.48;;;;;;;14.22;78.92;98876.63;5086438;28;20114;-70
2023/04/17 09:21:00;;;;;;;24.70;18.05;;;;;;;14.23;78.99;98876.28;5097568;28;20455;-70
2023/04/17 09:23:27;;;;;;;32.90;19.95;;;;;;;14.23;79.02;98881.06;5103100;28;20026;-70
2023/04/17 09:26:13;;;;;;;30.50;19.67;;;;;;;14.22;79.21;98880.28;5108136;28;20483;-67
2023/04/17 09:28:39;;;;;;;28.65;19.58;;;;;;;14.25;79.40;98873.09;5104341;28;20431;-67
2023/04/17 09:31:17;;;;;;;29.55;19.92;;;;;;;14.23;79.86;98883.88;5084618;28;20115;-68
2023/04/17 09:34:15;;;;;;;30.90;23.27;;;;;;;14.18;80.20;98883.00;5102943;28;20559;-70
2023/04/17 09:36:42;;;;;;;29.02;21.95;;;;;;;14.12;80.08;98881.72;5044221;28;20165;-66
2023/04/17 09:39:23;;;;;;;26.45;20.95;;;;;;;14.21;80.00;98881.47;5100756;28;20556;-68
2023/04/17 09:41:48;;;;;;;24.05;19.92;;;;;;;14.38;79.03;98880.16;5094414;28;20502;-67
2023/04/17 09:44:25;;;;;;;34.80;19.13;;;;;;;14.45;79.93;98882.28;5081258;28;20052;-69
2023/04/17 09:46:52;;;;;;;28.65;20.77;;;;;;;14.51;78.75;98869.50;5095408;28;20160;-70
2023/04/17 09:49:39;;;;;;;30.50;22.90;;;;;;;14.55;79.40;98869.56;5094766;28;20024;-70
2023/04/17 09:52:05;;;;;;;33.05;21.10;;;;;;;14.53;79.08;98864.31;5094000;28;20024;-70
2023/04/17 09:54:36;;;;;;;26.63;19.50;;;;;;;14.57;78.58;98864.38;5080483;28;20039;-69
2023/04/17 09:57:03;;;;;;;25.92;20.23;;;;;;;14.47;78.85;98857.38;5095911;28;20102;-69
2023/04/17 09:59:30;;;;;;;30.65;21.25;;;;;;;14.30;79.10;98870.78;5077115;28;20019;-69
2023/04/17 10:01:56;;;;;;;31.77;21.60;;;;;;;14.22;80.42;98859.75;5097535;28;20050;-69
2023/04/17 10:04:21;;;;;;;31.35;23.10;;;;;;;14.35;80.47;98860.41;5100500;28;20067;-69
2023/04/17 10:06:48;;;;;;;31.30;23.88;;;;;;;14.19;80.45;98858.53;5099798;28;20023;-69
2023/04/17 10:09:14;;;;;;;39.22;27.02;;;;;;;14.17;81.15;98858.06;5093281;28;20019;-71
2023/04/17 10:11:43;;;;;;;35.97;27.90;;;;;;;14.33;79.66;98863.56;5099546;28;20040;-70
2023/04/17 10:14:31;;;;;;;44.72;31.23;;;;;;;14.21;81.21;98864.59;5086204;28;20043;-69
2023/04/17 10:16:57;;;;;;;38.53;27.95;;;;;;;14.26;84.03;98853.00;5100393;28;20031;-70
2023/04/17 10:19:26;;;;;;;38.67;26.90;;;;;;;14.29;83.85;98852.25;5080561;28;20029;-70
2023/04/17 10:22:19;;;;;;;40.15;28.33;;;;;;;14.28;85.10;98855.47;5075396;28;20070;-70
2023/04/17 10:24:51;;;;;;;32.35;24.45;;;;;;;14.16;85.46;98854.47;5080751;28;20035;-70
2023/04/17 10:27:26;;;;;;;28.60;24.33;;;;;;;14.31;86.41;98854.69;5078477;28;20035;-70
2023/04/17 10:29:53;;;;;;;34.47;25.05;;;;;;;14.16;86.90;98856.44;5095132;28;20027;-70
2023/04/17 10:32:20;;;;;;;33.35;25.77;;;;;;;14.21;86.71;98847.72;5105609;28;20053;-70
2023/04/17 10:34:46;;;;;;;35.60;26.70;;;;;;;14.26;86.90;98835.34;5103283;27;20122;-70
2023/04/17 10:37:14;;;;;;;34.08;25.33;;;;;;;14.29;87.32;98843.81;5101178;28;20115;-70
2023/04/17 10:39:50;;;;;;;37.88;26.83;;;;;;;14.38;87.28;98843.59;5084503;28;20031;-70
2023/04/17 10:42:21;;;;;;;34.75;24.70;;;;;;;14.34;87.28;98842.69;5102675;28;20031;-71
2023/04/17 10:44:48;;;;;;;31.33;25.67;;;;;;;14.29;88.58;98841.00;5083186;28;20030;-70
2023/04/17 10:47:13;;;;;;;34.17;26.35;;;;;;;14.33;87.76;98841.06;5097481;28;20031;-70
2023/04/17 10:49:50;;;;;;;37.38;27.75;;;;;;;14.30;89.25;98841.81;5104923;28;20065;-71
2023/04/17 10:52:38;;;;;;;33.50;27.60;;;;;;;14.20;90.02;98837.66;5108919;27;20051;-70
2023/04/17 10:55:21;;;;;;;34.33;27.33;;;;;;;14.07;90.31;98836.22;5085217;28;20024;-71
2023/04/17 10:57:58;;;;;;;35.72;26.05;;;;;;;14.08;89.80;98832.22;5091762;28;20023;-70
2023/04/17 11:00:48;;;;;;;40.60;28.08;;;;;;;13.95;90.87;98831.56;5098594;28;20020;-71
2023/04/17 11:03:14;;;;;;;45.03;30.27;;;;;;;13.98;92.73;98823.22;5096340;28;20439;-71
2023/04/17 11:05:44;;;;;;;50.13;30.08;;;;;;;14.09;93.36;98814.94;5099738;28;20031;-71
2023/04/17 11:08:10;;;;;;;40.10;26.58;;;;;;;13.95;91.97;98814.69;5096890;28;20020;-71
2023/04/17 11:10:37;;;;;;;44.65;28.83;;;;;;;14.09;91.39;98805.72;5106881;27;20114;-70
2023/04/17 11:13:03;;;;;;;57.70;35.38;;;;;;;14.02;91.67;98804.38;5100973;27;20056;-69
2023/04/17 11:15:30;;;;;;;45.58;30.70;;;;;;;14.06;91.29;98798.84;5106471;28;20578;-71
2023/04/17 11:17:57;;;;;;;51.03;33.35;;;;;;;14.13;91.99;98786.91;5112327;28;20083;-69
2023/04/17 11:20:25;;;;;;;50.33;32.47;;;;;;;14.17;92.33;98788.59;5109708;28;20486;-69